createdAt,value
2022-08-12T00:02:30.687Z,7.18
2022-08-12T00:05:19.106Z,2.40
2022-08-12T00:08:05.502Z,2.80
2022-08-12T00:10:52.056Z,2.00
2022-08-12T00:13:38.634Z,2.85
2022-08-12T00:16:25.347Z,3.80
2022-08-12T00:19:13.394Z,2.67
2022-08-12T00:22:00.425Z,3.28
2022-08-12T00:24:47.080Z,3.00
2022-08-12T00:27:43.618Z,1.75
2022-08-12T00:30:31.805Z,2.25
2022-08-12T00:33:22.037Z,3.80
2022-08-12T00:36:32.287Z,3.25
2022-08-12T00:39:18.253Z,2.78
2022-08-12T00:42:05.690Z,5.53
2022-08-12T00:44:34.477Z,3.38
2022-08-12T00:47:04.342Z,5.13
2022-08-12T00:49:33.950Z,3.03
2022-08-12T00:52:12.844Z,3.95
2022-08-12T00:54:44.063Z,5.28
2022-08-12T00:57:14.832Z,2.30
2022-08-12T00:59:46.281Z,3.60
2022-08-12T01:02:23.694Z,2.70
2022-08-12T01:05:14.641Z,3.15
2022-08-12T01:08:03.170Z,4.45
2022-08-12T01:10:50.905Z,2.47
2022-08-12T01:13:22.276Z,4.28
2022-08-12T01:15:52.648Z,2.97
2022-08-12T01:18:22.228Z,3.70
2022-08-12T01:21:04.420Z,4.72
2022-08-12T01:23:52.416Z,4.15
2022-08-12T01:26:26.021Z,3.47
2022-08-12T01:28:59.060Z,2.78
2022-08-12T01:31:30.239Z,5.03
2022-08-12T01:34:35.888Z,4.85
2022-08-12T01:36:59.014Z,4.43
2022-08-12T01:39:31.801Z,2.10
2022-08-12T01:42:05.189Z,3.15
2022-08-12T01:44:35.396Z,3.47
2022-08-12T01:47:19.281Z,5.05
2022-08-12T01:50:05.354Z,3.58
2022-08-12T01:52:43.556Z,4.28
2022-08-12T01:55:15.703Z,4.65
2022-08-12T02:00:55.501Z,4.55
2022-08-12T02:04:02.808Z,4.25
2022-08-12T02:06:55.402Z,2.35
2022-08-12T02:10:00.197Z,4.80
2022-08-12T02:12:41.519Z,3.13
2022-08-12T02:15:22.770Z,3.13
2022-08-12T02:18:04.997Z,5.27
2022-08-12T02:20:52.069Z,3.75
2022-08-12T02:23:27.245Z,5.07
2022-08-12T02:26:00.556Z,3.15
2022-08-12T02:28:30.020Z,5.80
2022-08-12T02:31:05.290Z,8.55
2022-08-12T02:33:34.483Z,5.60
2022-08-12T02:36:03.580Z,3.05
2022-08-12T02:38:32.217Z,2.58
2022-08-12T02:41:04.650Z,3.00
2022-08-12T02:43:39.171Z,2.95
2022-08-12T02:46:14.757Z,4.13
2022-08-12T02:48:51.408Z,4.60
2022-08-12T02:51:24.099Z,3.28
2022-08-12T02:54:04.911Z,2.58
2022-08-12T02:56:38.008Z,2.42
2022-08-12T02:59:12.287Z,2.60
2022-08-12T03:01:48.596Z,2.45
2022-08-12T03:04:26.953Z,2.70
2022-08-12T03:07:05.768Z,4.07
2022-08-12T03:10:02.200Z,3.90
2022-08-12T03:12:34.177Z,2.20
2022-08-12T03:15:07.332Z,2.63
2022-08-12T03:17:44.547Z,6.97
2022-08-12T03:20:17.070Z,4.72
2022-08-12T03:22:47.260Z,3.63
2022-08-12T03:25:18.493Z,3.05
2022-08-12T03:27:51.890Z,4.32
2022-08-12T03:30:22.545Z,3.60
2022-08-12T03:32:53.772Z,10.32
2022-08-12T03:35:40.254Z,10.52
2022-08-12T03:38:16.279Z,14.32
2022-08-12T03:41:24.046Z,11.27
2022-08-12T03:44:17.114Z,8.10
2022-08-12T03:47:08.394Z,6.10
2022-08-12T03:49:56.325Z,4.90
2022-08-12T03:52:42.604Z,4.28
2022-08-12T03:55:28.926Z,2.33
2022-08-12T03:58:16.247Z,4.70
2022-08-12T04:00:46.272Z,2.80
2022-08-12T04:03:29.442Z,2.78
2022-08-12T04:05:59.573Z,5.18
2022-08-12T04:08:28.481Z,4.18
2022-08-12T04:11:15.353Z,3.13
2022-08-12T04:13:43.804Z,5.13
2022-08-12T04:16:13.716Z,3.83
2022-08-12T04:18:43.709Z,5.57
2022-08-12T04:21:13.854Z,5.22
2022-08-12T04:23:48.211Z,6.28
2022-08-12T04:26:17.652Z,3.10
2022-08-12T04:28:47.325Z,3.25
2022-08-12T04:31:16.196Z,3.20
2022-08-12T04:33:45.433Z,2.33
2022-08-12T04:36:15.812Z,5.43
2022-08-12T04:38:45.282Z,4.03
2022-08-12T04:41:14.150Z,2.03
2022-08-12T04:43:55.342Z,3.30
2022-08-12T04:46:34.518Z,3.42
2022-08-12T04:49:04.156Z,6.68
2022-08-12T04:51:35.346Z,2.75
2022-08-12T04:54:06.007Z,3.13
2022-08-12T04:56:35.860Z,3.50
2022-08-12T04:59:05.887Z,5.47
2022-08-12T05:01:37.295Z,4.10
2022-08-12T05:04:07.020Z,3.45
2022-08-12T05:06:37.637Z,4.38
2022-08-12T05:09:13.241Z,3.80
2022-08-12T05:11:53.603Z,4.18
2022-08-12T05:14:22.659Z,2.75
2022-08-12T05:16:51.383Z,4.80
2022-08-12T05:19:22.742Z,2.55
2022-08-12T05:21:52.912Z,3.35
2022-08-12T05:24:21.644Z,3.92
2022-08-12T05:26:52.128Z,3.03
2022-08-12T05:30:08.127Z,4.38
2022-08-12T05:32:09.653Z,5.80
2022-08-12T05:34:38.112Z,6.03
2022-08-12T05:37:08.593Z,4.07
2022-08-12T05:39:37.646Z,5.22
2022-08-12T05:42:06.813Z,5.28
2022-08-12T05:44:36.413Z,3.05
2022-08-12T05:47:05.674Z,4.43
2022-08-12T05:49:34.773Z,6.78
2022-08-12T05:52:04.016Z,4.05
2022-08-12T05:54:56.666Z,2.97
2022-08-12T05:57:25.848Z,3.15
2022-08-12T05:59:55.310Z,3.53
2022-08-12T06:02:23.791Z,4.50
2022-08-12T06:04:53.821Z,5.10
2022-08-12T06:08:00.241Z,5.07
2022-08-12T06:10:13.738Z,7.30
2022-08-12T06:12:42.553Z,4.28
2022-08-12T06:15:12.033Z,3.60
2022-08-12T06:17:40.598Z,6.13
2022-08-12T06:20:27.469Z,5.78
2022-08-12T06:22:58.804Z,6.18
2022-08-12T06:25:29.464Z,6.07
2022-08-12T06:28:07.472Z,7.78
2022-08-12T06:30:39.638Z,5.43
2022-08-12T06:33:21.518Z,4.03
2022-08-12T06:35:57.401Z,4.85
2022-08-12T06:38:28.569Z,6.38
2022-08-12T06:41:19.250Z,4.97
2022-08-12T06:44:05.013Z,4.28
2022-08-12T06:46:38.968Z,4.43
2022-08-12T06:49:12.519Z,5.28
2022-08-12T06:51:41.421Z,6.28
2022-08-12T06:54:30.656Z,7.95
2022-08-12T06:58:05.131Z,5.28
2022-08-12T06:59:51.321Z,4.95
2022-08-12T07:02:21.247Z,5.80
2022-08-12T07:04:50.498Z,8.05
2022-08-12T07:07:19.055Z,5.35
2022-08-12T07:09:58.120Z,4.85
2022-08-12T07:12:37.274Z,4.60
2022-08-12T07:15:07.885Z,4.40
2022-08-12T07:17:39.805Z,5.22
2022-08-12T07:22:59.083Z,9.98
2022-08-12T07:25:40.629Z,6.43
2022-08-12T07:28:16.085Z,4.60
2022-08-12T07:30:46.409Z,4.95
2022-08-12T07:33:17.005Z,8.63
2022-08-12T07:35:48.429Z,6.22
2022-08-12T07:38:30.665Z,5.68
2022-08-12T07:41:04.474Z,4.40
2022-08-12T07:43:36.706Z,4.38
2022-08-12T07:46:10.463Z,4.55
2022-08-12T07:48:41.430Z,3.47
2022-08-12T07:51:11.565Z,3.53
2022-08-12T07:54:00.216Z,5.82
2022-08-12T07:56:31.449Z,4.57
2022-08-12T07:59:03.334Z,5.38
2022-08-12T08:01:34.153Z,5.70
2022-08-12T08:04:20.669Z,4.90
2022-08-12T08:06:50.235Z,3.97
2022-08-12T08:09:21.726Z,3.50
2022-08-12T08:14:38.062Z,5.90
2022-08-12T08:17:06.977Z,3.42
2022-08-12T08:20:02.209Z,3.65
2022-08-12T08:22:24.999Z,3.53
2022-08-12T08:25:34.252Z,5.75
2022-08-12T08:28:01.514Z,4.85
2022-08-12T08:30:32.928Z,3.30
2022-08-12T08:33:01.762Z,4.90
2022-08-12T08:35:46.861Z,3.58
2022-08-12T08:38:31.679Z,5.25
2022-08-12T08:42:18.109Z,3.97
2022-08-12T08:44:11.336Z,3.17
2022-08-12T08:46:43.395Z,6.03
2022-08-12T08:49:13.636Z,3.10
2022-08-12T08:51:45.444Z,3.83
2022-08-12T08:54:14.869Z,4.55
2022-08-12T08:56:46.633Z,4.90
2022-08-12T08:59:15.709Z,6.75
2022-08-12T09:01:46.958Z,4.20
2022-08-12T09:07:14.963Z,4.85
2022-08-12T09:12:55.095Z,4.93
2022-08-12T09:15:35.258Z,4.68
2022-08-12T09:18:09.493Z,4.13
2022-08-12T09:20:40.359Z,3.15
2022-08-12T09:24:00.666Z,3.78
2022-08-12T09:26:03.858Z,4.15
2022-08-12T09:28:37.301Z,3.65
2022-08-12T09:32:05.865Z,2.75
2022-08-12T09:34:28.791Z,4.38
2022-08-12T09:37:00.933Z,3.08
2022-08-12T09:40:03.517Z,4.50
2022-08-12T09:42:54.066Z,6.00
2022-08-12T09:46:20.508Z,4.05
2022-08-12T09:48:22.055Z,3.67
2022-08-12T09:50:55.469Z,4.50
2022-08-12T09:53:36.036Z,2.72
2022-08-12T09:56:58.451Z,4.05
2022-08-12T09:59:03.010Z,3.92
2022-08-12T10:01:35.127Z,2.88
2022-08-12T10:04:22.334Z,3.33
2022-08-12T10:06:54.717Z,5.68
2022-08-12T10:09:28.959Z,3.92
2022-08-12T10:12:34.257Z,2.92
2022-08-12T10:15:04.680Z,3.50
2022-08-12T10:17:35.491Z,2.97
2022-08-12T10:20:24.404Z,5.85
2022-08-12T10:23:01.953Z,2.78
2022-08-12T10:26:33.737Z,5.10
2022-08-12T10:29:02.630Z,3.17
2022-08-12T10:32:01.699Z,4.43
2022-08-12T10:34:26.463Z,2.50
2022-08-12T10:37:00.473Z,3.15
2022-08-12T10:40:01.176Z,3.55
2022-08-12T10:42:57.597Z,5.60
2022-08-12T10:45:31.435Z,11.77
2022-08-12T10:48:21.885Z,6.97
2022-08-12T10:51:01.140Z,7.35
2022-08-12T10:53:45.665Z,9.95
2022-08-12T10:56:18.948Z,3.55
2022-08-12T10:58:48.614Z,4.82
2022-08-12T11:01:49.768Z,3.38
2022-08-12T11:04:31.480Z,11.13
2022-08-12T11:07:06.193Z,6.88
2022-08-12T11:09:59.683Z,5.88
2022-08-12T11:12:56.337Z,8.68
2022-08-12T11:15:33.107Z,4.55
2022-08-12T11:18:18.009Z,5.45
2022-08-12T11:20:52.204Z,3.60
2022-08-12T11:23:35.905Z,4.93
2022-08-12T11:26:08.135Z,3.78
2022-08-12T11:28:39.950Z,4.90
2022-08-12T11:31:12.355Z,5.13
2022-08-12T11:34:05.327Z,5.53
2022-08-12T11:36:39.383Z,7.38
2022-08-12T11:39:11.344Z,4.75
2022-08-12T11:41:43.082Z,5.07
2022-08-12T11:44:36.644Z,4.22
2022-08-12T11:47:03.758Z,4.60
2022-08-12T11:49:38.128Z,4.50
2022-08-12T11:52:17.352Z,4.40
2022-08-12T11:54:56.868Z,6.03
2022-08-12T11:58:33.861Z,5.00
2022-08-12T12:02:02.095Z,4.60
2022-08-12T12:03:06.032Z,11.20
2022-08-12T12:05:41.547Z,8.55
2022-08-12T12:08:40.484Z,3.85
2022-08-12T12:11:10.956Z,5.32
2022-08-12T12:14:06.301Z,5.55
2022-08-12T12:16:33.511Z,7.43
2022-08-12T12:19:07.526Z,6.63
2022-08-12T12:21:48.695Z,6.32
2022-08-12T12:24:22.072Z,6.75
2022-08-12T12:27:00.473Z,4.82
2022-08-12T12:30:18.300Z,4.60
2022-08-12T12:32:29.238Z,5.75
2022-08-12T12:36:05.471Z,5.78
2022-08-12T12:38:04.146Z,4.82
2022-08-12T12:40:39.825Z,5.68
2022-08-12T12:43:10.150Z,5.57
2022-08-12T12:45:44.690Z,6.35
2022-08-12T12:48:18.677Z,5.63
2022-08-12T12:51:09.327Z,6.35
2022-08-12T12:54:06.543Z,7.07
2022-08-12T12:56:33.976Z,6.10
2022-08-12T12:59:06.165Z,7.68
2022-08-12T13:01:41.805Z,6.43
2022-08-12T13:04:14.449Z,7.57
2022-08-12T13:06:43.585Z,7.45
2022-08-12T13:09:13.585Z,6.75
2022-08-12T13:11:44.619Z,6.35
2022-08-12T13:14:28.833Z,6.33
2022-08-12T13:17:02.573Z,11.18
2022-08-12T13:19:37.815Z,6.70
2022-08-12T13:22:20.330Z,6.05
2022-08-12T13:24:52.156Z,7.25
2022-08-12T13:27:28.307Z,6.55
2022-08-12T13:30:03.856Z,7.07
2022-08-12T13:32:33.000Z,6.47
2022-08-12T13:35:04.596Z,7.57
2022-08-12T13:37:55.169Z,7.88
2022-08-12T13:40:25.729Z,7.43
2022-08-12T13:42:57.913Z,7.72
2022-08-12T13:45:29.513Z,6.30
2022-08-12T13:48:01.785Z,9.50
2022-08-12T13:50:34.053Z,6.25
2022-08-12T13:53:26.150Z,8.70
2022-08-12T13:56:01.311Z,7.97
2022-08-12T13:58:33.070Z,7.00
2022-08-12T14:01:08.814Z,7.78
2022-08-12T14:03:51.170Z,8.15
2022-08-12T14:06:25.950Z,6.07
2022-08-12T14:09:00.039Z,7.63
2022-08-12T14:11:58.901Z,6.25
2022-08-12T14:14:31.387Z,7.45
2022-08-12T14:17:09.967Z,8.77
2022-08-12T14:20:01.319Z,6.22
2022-08-12T14:22:33.983Z,8.02
2022-08-12T14:25:03.096Z,10.95
2022-08-12T14:28:03.775Z,6.20
2022-08-12T14:30:29.402Z,6.32
2022-08-12T14:33:02.908Z,6.05
2022-08-12T14:35:41.103Z,7.30
2022-08-12T14:38:25.963Z,8.65
2022-08-12T14:40:58.060Z,5.40
2022-08-12T14:46:19.469Z,5.00
2022-08-12T14:48:52.105Z,5.15
2022-08-12T14:52:48.458Z,5.97
2022-08-12T14:57:23.423Z,5.68
2022-08-12T15:00:10.546Z,9.10
2022-08-12T15:02:40.212Z,6.03
2022-08-12T15:05:10.169Z,9.52
2022-08-12T15:08:05.090Z,5.75
2022-08-12T15:10:38.567Z,7.00
2022-08-12T15:15:45.622Z,8.02
2022-08-12T15:18:21.147Z,6.20
2022-08-12T15:20:55.693Z,7.78
2022-08-12T15:23:29.193Z,6.65
2022-08-12T15:26:21.270Z,7.05
2022-08-12T15:29:07.257Z,9.13
2022-08-12T15:32:00.506Z,7.13
2022-08-12T15:34:33.801Z,6.95
2022-08-12T15:37:02.739Z,7.53
2022-08-12T15:39:32.071Z,6.55
2022-08-12T15:42:09.053Z,6.93
2022-08-12T15:44:42.842Z,7.53
2022-08-12T15:47:12.242Z,7.90
2022-08-12T15:49:59.848Z,7.32
2022-08-12T15:52:33.286Z,9.52
2022-08-12T15:55:06.593Z,7.80
2022-08-12T15:57:54.342Z,8.02
2022-08-12T16:00:32.702Z,8.27
2022-08-12T16:03:14.275Z,7.72
2022-08-12T16:06:13.211Z,9.25
2022-08-12T16:11:18.979Z,7.53
2022-08-12T16:13:52.781Z,7.55
2022-08-12T16:16:24.891Z,6.65
2022-08-12T16:18:59.585Z,8.63
2022-08-12T16:21:51.181Z,7.05
2022-08-12T16:24:22.348Z,7.03
2022-08-12T16:26:55.187Z,6.57
2022-08-12T16:29:53.183Z,8.75
2022-08-12T16:32:31.453Z,7.65
2022-08-12T16:35:16.178Z,8.07
2022-08-12T16:38:25.709Z,7.50
2022-08-12T16:40:37.121Z,7.95
2022-08-12T16:43:25.909Z,10.52
2022-08-12T16:46:05.269Z,9.18
2022-08-12T16:48:49.086Z,5.82
2022-08-12T16:51:20.261Z,8.82
2022-08-12T16:53:50.374Z,7.13
2022-08-12T16:56:19.356Z,7.18
2022-08-12T16:58:52.403Z,8.30
2022-08-12T17:01:23.678Z,10.15
2022-08-12T17:04:08.849Z,9.40
2022-08-12T17:06:43.628Z,11.52
2022-08-12T17:09:17.556Z,15.82
2022-08-12T17:11:49.209Z,13.55
2022-08-12T17:14:22.964Z,15.93
2022-08-12T17:16:55.290Z,19.52
2022-08-12T17:20:29.811Z,21.45
2022-08-12T17:22:16.935Z,19.15
2022-08-12T17:24:55.508Z,22.83
2022-08-12T17:27:26.354Z,28.52
2022-08-12T17:30:02.987Z,25.38
2022-08-12T17:32:37.538Z,18.05
2022-08-12T17:35:30.028Z,12.55
2022-08-12T17:38:07.627Z,11.65
2022-08-12T17:40:41.252Z,10.80
2022-08-12T17:43:57.129Z,9.43
2022-08-12T17:46:03.070Z,10.25
2022-08-12T17:48:38.456Z,10.30
2022-08-12T17:51:15.221Z,9.60
2022-08-12T17:54:11.472Z,8.77
2022-08-12T17:56:38.250Z,13.73
2022-08-12T17:59:12.483Z,8.10
2022-08-12T18:01:44.778Z,7.05
2022-08-12T18:04:21.392Z,7.70
2022-08-12T18:06:52.068Z,10.00
2022-08-12T18:09:24.491Z,9.70
2022-08-12T18:12:24.827Z,8.77
2022-08-12T18:14:58.391Z,9.05
2022-08-12T18:17:28.626Z,8.65
2022-08-12T18:20:05.450Z,8.07
2022-08-12T18:22:55.690Z,8.82
2022-08-12T18:26:15.086Z,9.68
2022-08-12T18:28:32.062Z,9.25
2022-08-12T18:31:03.488Z,9.43
2022-08-12T18:36:22.286Z,9.85
2022-08-12T18:38:56.279Z,9.68
2022-08-12T18:41:34.204Z,9.00
2022-08-12T18:44:08.121Z,10.52
2022-08-12T18:46:59.720Z,10.52
2022-08-12T18:49:37.946Z,10.05
2022-08-12T18:52:11.639Z,11.68
2022-08-12T18:54:49.070Z,8.05
2022-08-12T18:58:07.654Z,8.73
2022-08-12T19:00:22.707Z,12.13
2022-08-12T19:02:54.859Z,9.00
2022-08-12T19:05:52.671Z,9.27
2022-08-12T19:08:16.794Z,8.75
2022-08-12T19:10:50.358Z,10.70
2022-08-12T19:13:50.789Z,9.40
2022-08-12T19:16:21.836Z,7.95
2022-08-12T19:18:52.696Z,9.18
2022-08-12T19:21:21.555Z,9.20
2022-08-12T19:24:07.243Z,7.88
2022-08-12T19:26:37.106Z,9.18
2022-08-12T19:29:08.259Z,8.53
2022-08-12T19:31:45.062Z,10.60
2022-08-12T19:37:27.464Z,10.35
2022-08-12T19:40:09.127Z,8.25
2022-08-12T19:42:57.565Z,9.07
2022-08-12T19:45:42.333Z,10.73
2022-08-12T19:48:21.503Z,9.35
2022-08-12T19:50:55.771Z,9.55
2022-08-12T19:53:30.381Z,9.02
2022-08-12T19:56:21.035Z,9.02
2022-08-12T19:58:54.641Z,9.13
2022-08-12T20:01:23.772Z,8.27
2022-08-12T20:03:59.194Z,8.25
2022-08-12T20:06:33.902Z,10.60
2022-08-12T20:09:04.701Z,8.63
2022-08-12T20:12:15.308Z,10.23
2022-08-12T20:14:26.417Z,9.20
2022-08-12T20:17:02.833Z,8.52
2022-08-12T20:20:01.384Z,13.45
2022-08-12T20:22:29.875Z,10.88
2022-08-12T20:25:09.347Z,10.95
2022-08-12T20:28:04.140Z,9.75
2022-08-12T20:30:52.459Z,8.85
2022-08-12T20:33:50.800Z,9.00
2022-08-12T20:36:41.168Z,9.50
2022-08-12T20:39:33.775Z,9.27
2022-08-12T20:41:58.962Z,8.98
2022-08-12T20:44:30.622Z,9.30
2022-08-12T20:47:17.997Z,9.20
2022-08-12T20:49:55.578Z,8.95
2022-08-12T20:52:33.960Z,10.25
2022-08-12T20:55:05.896Z,11.75
2022-08-12T20:58:02.965Z,8.45
2022-08-12T21:00:35.136Z,8.55
2022-08-12T21:03:18.301Z,8.32
2022-08-12T21:06:10.223Z,11.27
2022-08-12T21:08:42.005Z,8.73
2022-08-12T21:11:12.067Z,9.82
2022-08-12T21:13:41.775Z,9.73
2022-08-12T21:16:41.616Z,9.15
2022-08-12T21:19:22.564Z,9.57
2022-08-12T21:21:54.862Z,12.05
2022-08-12T21:24:31.658Z,12.27
2022-08-12T21:27:03.500Z,10.25
2022-08-12T21:29:49.997Z,10.98
2022-08-12T21:32:46.790Z,10.77
2022-08-12T21:35:19.185Z,11.55
2022-08-12T21:37:53.002Z,12.65
2022-08-12T21:40:22.519Z,9.73
2022-08-12T21:43:08.083Z,12.70
2022-08-12T21:45:45.976Z,10.68
2022-08-12T21:48:28.308Z,11.45
2022-08-12T21:50:57.714Z,10.65
2022-08-12T21:54:06.099Z,9.50
2022-08-12T21:56:34.103Z,11.18
2022-08-12T21:59:13.643Z,8.63
2022-08-12T22:01:54.501Z,12.07
2022-08-12T22:04:54.904Z,12.73
2022-08-12T22:07:31.307Z,10.40
2022-08-12T22:10:28.286Z,11.55
2022-08-12T22:13:00.924Z,8.52
2022-08-12T22:15:36.775Z,11.50
2022-08-12T22:18:32.535Z,10.82
2022-08-12T22:21:37.960Z,9.88
2022-08-12T22:24:31.543Z,8.40
2022-08-12T22:27:18.234Z,11.07
2022-08-12T22:30:16.827Z,11.30
2022-08-12T22:32:54.935Z,12.60
2022-08-12T22:35:55.635Z,10.52
2022-08-12T22:38:30.908Z,12.25
2022-08-12T22:41:04.300Z,11.82
2022-08-12T22:43:59.949Z,10.75
2022-08-12T22:46:52.451Z,12.02
2022-08-12T22:49:26.047Z,12.38
2022-08-12T22:52:09.061Z,13.63
2022-08-12T22:54:46.397Z,11.25
2022-08-12T22:57:53.385Z,14.02
2022-08-12T23:00:27.084Z,9.45
2022-08-12T23:03:02.728Z,12.40
2022-08-12T23:05:57.255Z,10.02
2022-08-12T23:08:23.916Z,9.10
2022-08-12T23:10:59.535Z,9.90
2022-08-12T23:13:55.084Z,13.05
2022-08-12T23:16:31.461Z,11.52
2022-08-12T23:19:17.973Z,10.77
2022-08-12T23:22:06.482Z,11.10
2022-08-12T23:24:56.336Z,10.45
2022-08-12T23:27:52.214Z,10.65
2022-08-12T23:30:31.050Z,9.68
2022-08-12T23:40:49.777Z,8.93
2022-08-12T23:43:24.302Z,11.38
2022-08-12T23:46:03.414Z,9.55
2022-08-12T23:48:33.952Z,9.77
2022-08-12T23:51:21.629Z,10.68
2022-08-12T23:53:55.360Z,10.70
2022-08-12T23:56:25.290Z,11.13
2022-08-12T23:58:57.436Z,9.70
